sensor_id;sensor_type;location;lat;lon;timestamp;temperature;humidity
10566;DHT22;5331;48.148;16.326;2022-07-03T00:02:04;17.40;1.00
10566;DHT22;5331;48.148;16.326;2022-07-03T00:04:31;17.30;1.00
10566;DHT22;5331;48.148;16.326;2022-07-03T00:06:57;17.30;1.00
10566;DHT22;5331;48.148;16.326;2022-07-03T00:09:26;17.30;1.00
10566;DHT22;5331;48.148;16.326;2022-07-03T00:11:53;17.30;1.00
10566;DHT22;5331;48.148;16.326;2022-07-03T00:14:20;17.20;1.00
10566;DHT22;5331;48.148;16.326;2022-07-03T00:16:46;17.20;1.00
10566;DHT22;5331;48.148;16.326;2022-07-03T00:19:13;17.20;1.00
10566;DHT22;5331;48.148;16.326;2022-07-03T00:21:45;17.10;1.00
10566;DHT22;5331;48.148;16.326;2022-07-03T00:24:19;17.10;1.00
10566;DHT22;5331;48.148;16.326;2022-07-03T00:26:51;17.10;1.00
10566;DHT22;5331;48.148;16.326;2022-07-03T00:29:21;17.00;1.00
10566;DHT22;5331;48.148;16.326;2022-07-03T00:31:48;16.90;1.00
10566;DHT22;5331;48.148;16.326;2022-07-03T00:34:16;16.90;1.00
10566;DHT22;5331;48.148;16.326;2022-07-03T00:36:46;16.80;1.00
10566;DHT22;5331;48.148;16.326;2022-07-03T00:39:13;16.80;1.00
10566;DHT22;5331;48.148;16.326;2022-07-03T00:41:41;16.80;1.00
10566;DHT22;5331;48.148;16.326;2022-07-03T00:44:11;16.70;1.00
10566;DHT22;5331;48.148;16.326;2022-07-03T00:46:40;16.70;1.00
10566;DHT22;5331;48.148;16.326;2022-07-03T00:49:09;16.70;1.00
10566;DHT22;5331;48.148;16.326;2022-07-03T00:51:38;16.60;1.00
10566;DHT22;5331;48.148;16.326;2022-07-03T00:54:08;16.60;1.00
10566;DHT22;5331;48.148;16.326;2022-07-03T00:56:38;16.50;1.00
10566;DHT22;5331;48.148;16.326;2022-07-03T00:59:06;16.50;1.00
10566;DHT22;5331;48.148;16.326;2022-07-03T01:01:35;16.40;1.00
10566;DHT22;5331;48.148;16.326;2022-07-03T01:04:12;16.40;1.00
10566;DHT22;5331;48.148;16.326;2022-07-03T01:06:52;16.40;1.00
10566;DHT22;5331;48.148;16.326;2022-07-03T01:09:26;16.30;1.00
10566;DHT22;5331;48.148;16.326;2022-07-03T01:12:01;16.30;1.00
10566;DHT22;5331;48.148;16.326;2022-07-03T01:14:35;16.30;1.00
10566;DHT22;5331;48.148;16.326;2022-07-03T01:17:15;16.30;1.00
10566;DHT22;5331;48.148;16.326;2022-07-03T01:19:48;16.20;1.00
10566;DHT22;5331;48.148;16.326;2022-07-03T01:22:32;16.20;1.00
10566;DHT22;5331;48.148;16.326;2022-07-03T01:25:14;16.20;1.00
10566;DHT22;5331;48.148;16.326;2022-07-03T01:28:05;16.20;1.00
10566;DHT22;5331;48.148;16.326;2022-07-03T01:30:36;16.10;1.00
10566;DHT22;5331;48.148;16.326;2022-07-03T01:33:07;16.10;1.00
10566;DHT22;5331;48.148;16.326;2022-07-03T01:35:35;16.10;1.00
10566;DHT22;5331;48.148;16.326;2022-07-03T01:38:05;16.10;1.00
10566;DHT22;5331;48.148;16.326;2022-07-03T01:40:34;16.00;1.00
10566;DHT22;5331;48.148;16.326;2022-07-03T01:43:04;16.00;1.00
10566;DHT22;5331;48.148;16.326;2022-07-03T01:45:32;16.00;1.00
10566;DHT22;5331;48.148;16.326;2022-07-03T01:48:02;16.00;1.00
10566;DHT22;5331;48.148;16.326;2022-07-03T01:50:32;16.00;1.00
10566;DHT22;5331;48.148;16.326;2022-07-03T01:53:01;15.90;1.00
10566;DHT22;5331;48.148;16.326;2022-07-03T01:55:30;15.90;1.00
10566;DHT22;5331;48.148;16.326;2022-07-03T01:57:58;15.90;1.00
10566;DHT22;5331;48.148;16.326;2022-07-03T02:00:27;15.90;1.00
10566;DHT22;5331;48.148;16.326;2022-07-03T02:02:58;15.90;1.00
10566;DHT22;5331;48.148;16.326;2022-07-03T02:05:32;15.90;1.00
10566;DHT22;5331;48.148;16.326;2022-07-03T02:08:12;15.90;1.00
10566;DHT22;5331;48.148;16.326;2022-07-03T02:10:47;15.80;1.00
10566;DHT22;5331;48.148;16.326;2022-07-03T02:13:23;15.80;1.00
10566;DHT22;5331;48.148;16.326;2022-07-03T02:15:52;15.80;1.00
10566;DHT22;5331;48.148;16.326;2022-07-03T02:18:27;15.80;1.00
10566;DHT22;5331;48.148;16.326;2022-07-03T02:21:04;15.80;1.00
10566;DHT22;5331;48.148;16.326;2022-07-03T02:23:32;15.70;1.00
10566;DHT22;5331;48.148;16.326;2022-07-03T02:26:04;15.70;1.00
10566;DHT22;5331;48.148;16.326;2022-07-03T02:28:45;15.70;1.00
10566;DHT22;5331;48.148;16.326;2022-07-03T02:31:18;15.60;1.00
10566;DHT22;5331;48.148;16.326;2022-07-03T02:33:49;15.60;1.00
10566;DHT22;5331;48.148;16.326;2022-07-03T02:36:18;15.60;1.00
10566;DHT22;5331;48.148;16.326;2022-07-03T02:38:52;15.60;1.00
10566;DHT22;5331;48.148;16.326;2022-07-03T02:41:24;15.60;1.00
10566;DHT22;5331;48.148;16.326;2022-07-03T02:43:59;15.50;1.00
10566;DHT22;5331;48.148;16.326;2022-07-03T02:46:38;15.50;1.00
10566;DHT22;5331;48.148;16.326;2022-07-03T02:49:27;15.40;1.00
10566;DHT22;5331;48.148;16.326;2022-07-03T02:52:10;15.40;1.00
10566;DHT22;5331;48.148;16.326;2022-07-03T02:54:42;15.40;1.00
10566;DHT22;5331;48.148;16.326;2022-07-03T02:57:10;15.40;1.00
10566;DHT22;5331;48.148;16.326;2022-07-03T02:59:55;15.40;1.00
10566;DHT22;5331;48.148;16.326;2022-07-03T03:02:50;15.40;1.00
10566;DHT22;5331;48.148;16.326;2022-07-03T03:05:23;15.40;1.00
10566;DHT22;5331;48.148;16.326;2022-07-03T03:07:59;15.40;1.00
10566;DHT22;5331;48.148;16.326;2022-07-03T03:10:27;15.40;1.00
10566;DHT22;5331;48.148;16.326;2022-07-03T03:13:02;15.40;1.00
10566;DHT22;5331;48.148;16.326;2022-07-03T03:15:30;15.40;1.00
10566;DHT22;5331;48.148;16.326;2022-07-03T03:18:01;15.30;1.00
10566;DHT22;5331;48.148;16.326;2022-07-03T03:20:31;15.40;1.00
10566;DHT22;5331;48.148;16.326;2022-07-03T03:23:12;15.40;1.00
10566;DHT22;5331;48.148;16.326;2022-07-03T03:25:43;15.40;1.00
10566;DHT22;5331;48.148;16.326;2022-07-03T03:28:10;15.50;1.00
10566;DHT22;5331;48.148;16.326;2022-07-03T03:30:37;15.50;1.00
10566;DHT22;5331;48.148;16.326;2022-07-03T03:33:05;15.60;1.00
10566;DHT22;5331;48.148;16.326;2022-07-03T03:35:34;15.60;1.00
10566;DHT22;5331;48.148;16.326;2022-07-03T03:38:01;15.60;1.00
10566;DHT22;5331;48.148;16.326;2022-07-03T03:40:27;15.60;1.00
10566;DHT22;5331;48.148;16.326;2022-07-03T03:42:54;15.60;1.00
10566;DHT22;5331;48.148;16.326;2022-07-03T03:45:21;15.60;1.00
10566;DHT22;5331;48.148;16.326;2022-07-03T03:47:48;15.60;1.00
10566;DHT22;5331;48.148;16.326;2022-07-03T03:50:17;15.70;1.00
10566;DHT22;5331;48.148;16.326;2022-07-03T03:52:44;15.70;1.00
10566;DHT22;5331;48.148;16.326;2022-07-03T03:55:11;15.70;1.00
10566;DHT22;5331;48.148;16.326;2022-07-03T03:57:38;15.80;1.00
10566;DHT22;5331;48.148;16.326;2022-07-03T04:00:06;15.80;1.00
10566;DHT22;5331;48.148;16.326;2022-07-03T04:02:33;15.90;1.00
10566;DHT22;5331;48.148;16.326;2022-07-03T04:05:00;15.90;1.00
10566;DHT22;5331;48.148;16.326;2022-07-03T04:07:28;16.00;1.00
10566;DHT22;5331;48.148;16.326;2022-07-03T04:09:55;16.10;1.00
10566;DHT22;5331;48.148;16.326;2022-07-03T04:12:22;16.20;1.00
10566;DHT22;5331;48.148;16.326;2022-07-03T04:14:49;16.40;1.00
10566;DHT22;5331;48.148;16.326;2022-07-03T04:17:16;16.50;1.00
10566;DHT22;5331;48.148;16.326;2022-07-03T04:19:43;16.60;1.00
10566;DHT22;5331;48.148;16.326;2022-07-03T04:22:09;16.70;1.00
10566;DHT22;5331;48.148;16.326;2022-07-03T04:24:38;16.80;1.00
10566;DHT22;5331;48.148;16.326;2022-07-03T04:27:05;16.90;1.00
10566;DHT22;5331;48.148;16.326;2022-07-03T04:29:32;17.00;1.00
10566;DHT22;5331;48.148;16.326;2022-07-03T04:31:58;17.00;1.00
10566;DHT22;5331;48.148;16.326;2022-07-03T04:34:25;17.10;1.00
10566;DHT22;5331;48.148;16.326;2022-07-03T04:36:52;17.20;1.00
10566;DHT22;5331;48.148;16.326;2022-07-03T04:39:19;17.20;1.00
10566;DHT22;5331;48.148;16.326;2022-07-03T04:41:47;17.20;1.00
10566;DHT22;5331;48.148;16.326;2022-07-03T04:44:14;17.30;1.00
10566;DHT22;5331;48.148;16.326;2022-07-03T04:46:41;17.40;1.00
10566;DHT22;5331;48.148;16.326;2022-07-03T04:49:08;17.50;1.00
10566;DHT22;5331;48.148;16.326;2022-07-03T04:51:34;17.60;1.00
10566;DHT22;5331;48.148;16.326;2022-07-03T04:54:01;17.70;1.00
10566;DHT22;5331;48.148;16.326;2022-07-03T04:56:28;17.80;1.00
10566;DHT22;5331;48.148;16.326;2022-07-03T04:58:57;17.90;1.00
10566;DHT22;5331;48.148;16.326;2022-07-03T05:01:24;18.00;1.00
10566;DHT22;5331;48.148;16.326;2022-07-03T05:03:50;18.00;1.00
10566;DHT22;5331;48.148;16.326;2022-07-03T05:06:17;18.10;1.00
10566;DHT22;5331;48.148;16.326;2022-07-03T05:08:44;18.10;1.00
10566;DHT22;5331;48.148;16.326;2022-07-03T05:11:11;18.10;1.00
10566;DHT22;5331;48.148;16.326;2022-07-03T05:13:38;18.20;1.00
10566;DHT22;5331;48.148;16.326;2022-07-03T05:16:06;18.20;1.00
10566;DHT22;5331;48.148;16.326;2022-07-03T05:18:33;18.20;1.00
10566;DHT22;5331;48.148;16.326;2022-07-03T05:21:00;18.30;1.00
10566;DHT22;5331;48.148;16.326;2022-07-03T05:23:27;18.40;1.00
10566;DHT22;5331;48.148;16.326;2022-07-03T05:25:54;18.40;1.00
10566;DHT22;5331;48.148;16.326;2022-07-03T05:28:21;18.50;1.00
10566;DHT22;5331;48.148;16.326;2022-07-03T05:30:49;18.60;1.00
10566;DHT22;5331;48.148;16.326;2022-07-03T05:33:17;18.60;1.00
10566;DHT22;5331;48.148;16.326;2022-07-03T05:35:44;18.70;1.00
10566;DHT22;5331;48.148;16.326;2022-07-03T05:38:11;18.80;1.00
10566;DHT22;5331;48.148;16.326;2022-07-03T05:40:39;18.80;1.00
10566;DHT22;5331;48.148;16.326;2022-07-03T05:43:04;18.90;1.00
10566;DHT22;5331;48.148;16.326;2022-07-03T05:45:31;18.90;1.00
10566;DHT22;5331;48.148;16.326;2022-07-03T05:47:58;18.90;1.00
10566;DHT22;5331;48.148;16.326;2022-07-03T05:50:26;19.10;1.00
10566;DHT22;5331;48.148;16.326;2022-07-03T05:52:53;19.20;1.00
10566;DHT22;5331;48.148;16.326;2022-07-03T05:57:47;19.40;1.00
10566;DHT22;5331;48.148;16.326;2022-07-03T06:00:14;19.40;1.00
10566;DHT22;5331;48.148;16.326;2022-07-03T06:02:41;19.50;1.00
10566;DHT22;5331;48.148;16.326;2022-07-03T06:05:08;19.60;1.00
10566;DHT22;5331;48.148;16.326;2022-07-03T06:07:37;19.80;1.00
10566;DHT22;5331;48.148;16.326;2022-07-03T06:10:04;20.20;1.00
10566;DHT22;5331;48.148;16.326;2022-07-03T06:12:31;20.60;1.00
10566;DHT22;5331;48.148;16.326;2022-07-03T06:14:58;21.00;1.00
10566;DHT22;5331;48.148;16.326;2022-07-03T06:17:25;21.40;1.00
10566;DHT22;5331;48.148;16.326;2022-07-03T06:19:52;21.90;1.00
10566;DHT22;5331;48.148;16.326;2022-07-03T06:22:19;22.40;1.00
10566;DHT22;5331;48.148;16.326;2022-07-03T06:24:47;22.90;1.00
10566;DHT22;5331;48.148;16.326;2022-07-03T06:27:14;23.40;1.00
10566;DHT22;5331;48.148;16.326;2022-07-03T06:29:41;23.80;1.00
10566;DHT22;5331;48.148;16.326;2022-07-03T06:32:08;24.10;1.00
10566;DHT22;5331;48.148;16.326;2022-07-03T06:34:35;24.30;1.00
10566;DHT22;5331;48.148;16.326;2022-07-03T06:37:02;24.50;1.00
10566;DHT22;5331;48.148;16.326;2022-07-03T06:39:28;24.80;1.00
10566;DHT22;5331;48.148;16.326;2022-07-03T06:41:57;25.10;1.00
10566;DHT22;5331;48.148;16.326;2022-07-03T06:44:24;25.10;1.00
10566;DHT22;5331;48.148;16.326;2022-07-03T06:46:50;25.40;1.00
10566;DHT22;5331;48.148;16.326;2022-07-03T06:49:17;25.60;1.00
10566;DHT22;5331;48.148;16.326;2022-07-03T06:51:44;25.70;1.00
10566;DHT22;5331;48.148;16.326;2022-07-03T06:54:11;25.90;1.00
10566;DHT22;5331;48.148;16.326;2022-07-03T06:56:38;26.30;1.00
10566;DHT22;5331;48.148;16.326;2022-07-03T06:59:06;26.60;1.00
10566;DHT22;5331;48.148;16.326;2022-07-03T07:01:33;26.40;1.00
10566;DHT22;5331;48.148;16.326;2022-07-03T07:04:00;26.50;1.00
10566;DHT22;5331;48.148;16.326;2022-07-03T07:06:28;26.80;1.00
10566;DHT22;5331;48.148;16.326;2022-07-03T07:08:54;26.90;1.00
10566;DHT22;5331;48.148;16.326;2022-07-03T07:11:21;26.80;1.00
10566;DHT22;5331;48.148;16.326;2022-07-03T07:13:48;27.10;1.00
10566;DHT22;5331;48.148;16.326;2022-07-03T07:16:16;27.30;1.00
10566;DHT22;5331;48.148;16.326;2022-07-03T07:18:43;27.50;1.00
10566;DHT22;5331;48.148;16.326;2022-07-03T07:21:10;27.70;1.00
10566;DHT22;5331;48.148;16.326;2022-07-03T07:23:37;27.90;1.00
10566;DHT22;5331;48.148;16.326;2022-07-03T07:26:04;28.10;1.00
10566;DHT22;5331;48.148;16.326;2022-07-03T07:28:31;28.40;1.00
10566;DHT22;5331;48.148;16.326;2022-07-03T07:30:59;28.60;1.00
10566;DHT22;5331;48.148;16.326;2022-07-03T07:33:28;28.70;1.00
10566;DHT22;5331;48.148;16.326;2022-07-03T07:35:54;28.50;1.00
10566;DHT22;5331;48.148;16.326;2022-07-03T07:38:21;28.60;1.00
10566;DHT22;5331;48.148;16.326;2022-07-03T07:40:48;28.80;1.00
10566;DHT22;5331;48.148;16.326;2022-07-03T07:43:15;29.00;1.00
10566;DHT22;5331;48.148;16.326;2022-07-03T07:45:42;28.10;1.00
10566;DHT22;5331;48.148;16.326;2022-07-03T07:48:10;27.90;1.00
10566;DHT22;5331;48.148;16.326;2022-07-03T07:50:38;27.50;1.00
10566;DHT22;5331;48.148;16.326;2022-07-03T07:53:05;27.80;1.00
10566;DHT22;5331;48.148;16.326;2022-07-03T07:55:32;28.10;1.00
10566;DHT22;5331;48.148;16.326;2022-07-03T07:57:58;28.40;1.00
10566;DHT22;5331;48.148;16.326;2022-07-03T08:00:25;28.10;1.00
10566;DHT22;5331;48.148;16.326;2022-07-03T08:02:52;27.90;1.00
10566;DHT22;5331;48.148;16.326;2022-07-03T08:05:38;28.40;1.00
10566;DHT22;5331;48.148;16.326;2022-07-03T08:08:07;28.90;1.00
10566;DHT22;5331;48.148;16.326;2022-07-03T08:10:36;29.20;1.00
10566;DHT22;5331;48.148;16.326;2022-07-03T08:13:03;29.50;1.00
10566;DHT22;5331;48.148;16.326;2022-07-03T08:15:30;29.40;1.00
10566;DHT22;5331;48.148;16.326;2022-07-03T08:17:58;29.10;1.00
10566;DHT22;5331;48.148;16.326;2022-07-03T08:20:25;29.00;1.00
10566;DHT22;5331;48.148;16.326;2022-07-03T08:22:53;28.80;1.00
10566;DHT22;5331;48.148;16.326;2022-07-03T08:25:21;28.90;1.00
10566;DHT22;5331;48.148;16.326;2022-07-03T08:27:48;28.90;1.00
10566;DHT22;5331;48.148;16.326;2022-07-03T08:30:15;29.10;1.00
10566;DHT22;5331;48.148;16.326;2022-07-03T08:32:44;29.20;1.00
10566;DHT22;5331;48.148;16.326;2022-07-03T08:35:11;29.60;1.00
10566;DHT22;5331;48.148;16.326;2022-07-03T08:37:38;29.80;1.00
10566;DHT22;5331;48.148;16.326;2022-07-03T08:40:10;29.60;1.00
10566;DHT22;5331;48.148;16.326;2022-07-03T08:42:39;29.50;1.00
10566;DHT22;5331;48.148;16.326;2022-07-03T08:45:13;29.00;1.00
10566;DHT22;5331;48.148;16.326;2022-07-03T08:47:40;28.80;1.00
10566;DHT22;5331;48.148;16.326;2022-07-03T08:50:09;28.70;1.00
10566;DHT22;5331;48.148;16.326;2022-07-03T08:52:36;28.80;1.00
10566;DHT22;5331;48.148;16.326;2022-07-03T08:55:04;29.10;1.00
10566;DHT22;5331;48.148;16.326;2022-07-03T08:57:33;29.10;1.00
10566;DHT22;5331;48.148;16.326;2022-07-03T09:00:05;29.30;1.00
10566;DHT22;5331;48.148;16.326;2022-07-03T09:02:32;29.50;1.00
10566;DHT22;5331;48.148;16.326;2022-07-03T09:05:00;29.20;1.00
10566;DHT22;5331;48.148;16.326;2022-07-03T09:07:28;29.10;1.00
10566;DHT22;5331;48.148;16.326;2022-07-03T09:09:56;29.40;1.00
10566;DHT22;5331;48.148;16.326;2022-07-03T09:12:23;29.20;1.00
10566;DHT22;5331;48.148;16.326;2022-07-03T09:14:52;29.30;1.00
10566;DHT22;5331;48.148;16.326;2022-07-03T09:17:19;29.70;1.00
10566;DHT22;5331;48.148;16.326;2022-07-03T09:19:47;30.10;1.00
10566;DHT22;5331;48.148;16.326;2022-07-03T09:22:20;30.00;1.00
10566;DHT22;5331;48.148;16.326;2022-07-03T09:24:48;30.00;1.00
10566;DHT22;5331;48.148;16.326;2022-07-03T09:27:20;30.00;1.00
10566;DHT22;5331;48.148;16.326;2022-07-03T09:29:57;30.10;1.00
10566;DHT22;5331;48.148;16.326;2022-07-03T09:32:24;30.20;1.00
10566;DHT22;5331;48.148;16.326;2022-07-03T09:35:13;29.40;1.00
10566;DHT22;5331;48.148;16.326;2022-07-03T09:37:47;29.50;1.00
10566;DHT22;5331;48.148;16.326;2022-07-03T09:40:14;30.00;1.00
10566;DHT22;5331;48.148;16.326;2022-07-03T09:42:58;30.40;1.00
10566;DHT22;5331;48.148;16.326;2022-07-03T09:45:26;30.60;1.00
10566;DHT22;5331;48.148;16.326;2022-07-03T09:47:53;31.10;1.00
10566;DHT22;5331;48.148;16.326;2022-07-03T09:50:20;31.40;1.00
10566;DHT22;5331;48.148;16.326;2022-07-03T09:52:47;31.40;1.00
10566;DHT22;5331;48.148;16.326;2022-07-03T09:55:16;31.30;1.00
10566;DHT22;5331;48.148;16.326;2022-07-03T09:57:45;31.40;1.00
10566;DHT22;5331;48.148;16.326;2022-07-03T10:00:15;31.50;1.00
10566;DHT22;5331;48.148;16.326;2022-07-03T10:03:02;31.40;1.00
10566;DHT22;5331;48.148;16.326;2022-07-03T10:05:32;31.40;1.00
10566;DHT22;5331;48.148;16.326;2022-07-03T10:08:00;31.60;1.00
10566;DHT22;5331;48.148;16.326;2022-07-03T10:10:30;31.70;1.00
10566;DHT22;5331;48.148;16.326;2022-07-03T10:12:57;31.70;1.00
10566;DHT22;5331;48.148;16.326;2022-07-03T10:15:26;31.40;1.00
10566;DHT22;5331;48.148;16.326;2022-07-03T10:17:56;31.50;1.00
10566;DHT22;5331;48.148;16.326;2022-07-03T10:20:25;31.60;1.00
10566;DHT22;5331;48.148;16.326;2022-07-03T10:22:53;31.40;1.00
10566;DHT22;5331;48.148;16.326;2022-07-03T10:25:20;31.50;1.00
10566;DHT22;5331;48.148;16.326;2022-07-03T10:27:48;31.30;1.00
10566;DHT22;5331;48.148;16.326;2022-07-03T10:30:16;31.30;1.00
10566;DHT22;5331;48.148;16.326;2022-07-03T10:32:46;31.50;1.00
10566;DHT22;5331;48.148;16.326;2022-07-03T10:35:17;31.40;1.00
10566;DHT22;5331;48.148;16.326;2022-07-03T10:38:18;31.50;1.00
10566;DHT22;5331;48.148;16.326;2022-07-03T10:40:54;31.50;1.00
10566;DHT22;5331;48.148;16.326;2022-07-03T10:43:42;31.70;1.00
10566;DHT22;5331;48.148;16.326;2022-07-03T10:46:28;31.90;1.00
10566;DHT22;5331;48.148;16.326;2022-07-03T10:49:00;31.50;1.00
10566;DHT22;5331;48.148;16.326;2022-07-03T10:51:31;31.60;1.00
10566;DHT22;5331;48.148;16.326;2022-07-03T10:54:15;31.90;1.00
10566;DHT22;5331;48.148;16.326;2022-07-03T10:57:16;32.00;1.00
10566;DHT22;5331;48.148;16.326;2022-07-03T10:59:57;31.80;1.00
10566;DHT22;5331;48.148;16.326;2022-07-03T11:02:27;31.90;1.00
10566;DHT22;5331;48.148;16.326;2022-07-03T11:05:16;31.90;1.00
10566;DHT22;5331;48.148;16.326;2022-07-03T11:08:06;32.20;1.00
10566;DHT22;5331;48.148;16.326;2022-07-03T11:10:35;32.30;1.00
10566;DHT22;5331;48.148;16.326;2022-07-03T11:13:07;32.50;1.00
10566;DHT22;5331;48.148;16.326;2022-07-03T11:15:38;32.50;1.00
10566;DHT22;5331;48.148;16.326;2022-07-03T11:18:10;32.50;1.00
10566;DHT22;5331;48.148;16.326;2022-07-03T11:21:15;32.50;1.00
10566;DHT22;5331;48.148;16.326;2022-07-03T11:23:59;32.30;1.00
10566;DHT22;5331;48.148;16.326;2022-07-03T11:26:28;32.20;1.00
10566;DHT22;5331;48.148;16.326;2022-07-03T11:28:55;32.30;1.00
10566;DHT22;5331;48.148;16.326;2022-07-03T11:31:23;32.20;1.00
10566;DHT22;5331;48.148;16.326;2022-07-03T11:33:57;32.20;1.00
10566;DHT22;5331;48.148;16.326;2022-07-03T11:36:25;32.30;1.00
10566;DHT22;5331;48.148;16.326;2022-07-03T11:39:09;32.30;1.00
10566;DHT22;5331;48.148;16.326;2022-07-03T11:41:46;32.40;1.00
10566;DHT22;5331;48.148;16.326;2022-07-03T11:44:20;32.50;1.00
10566;DHT22;5331;48.148;16.326;2022-07-03T11:46:50;32.80;1.00
10566;DHT22;5331;48.148;16.326;2022-07-03T11:49:18;32.70;1.00
10566;DHT22;5331;48.148;16.326;2022-07-03T11:51:55;32.60;1.00
10566;DHT22;5331;48.148;16.326;2022-07-03T11:54:24;32.60;1.00
10566;DHT22;5331;48.148;16.326;2022-07-03T11:56:51;32.60;1.00
10566;DHT22;5331;48.148;16.326;2022-07-03T11:59:18;32.80;1.00
10566;DHT22;5331;48.148;16.326;2022-07-03T12:01:45;32.70;1.00
10566;DHT22;5331;48.148;16.326;2022-07-03T12:04:14;32.70;1.00
10566;DHT22;5331;48.148;16.326;2022-07-03T12:06:43;32.70;1.00
10566;DHT22;5331;48.148;16.326;2022-07-03T12:09:16;32.70;1.00
10566;DHT22;5331;48.148;16.326;2022-07-03T12:11:54;32.80;1.00
10566;DHT22;5331;48.148;16.326;2022-07-03T12:14:34;32.70;1.00
10566;DHT22;5331;48.148;16.326;2022-07-03T12:17:01;32.80;1.00
10566;DHT22;5331;48.148;16.326;2022-07-03T12:19:28;33.00;1.00
10566;DHT22;5331;48.148;16.326;2022-07-03T12:21:55;33.00;1.00
10566;DHT22;5331;48.148;16.326;2022-07-03T12:24:23;33.00;1.00
10566;DHT22;5331;48.148;16.326;2022-07-03T12:26:50;33.00;1.00
10566;DHT22;5331;48.148;16.326;2022-07-03T12:29:19;32.80;1.00
10566;DHT22;5331;48.148;16.326;2022-07-03T12:31:47;33.00;1.00
10566;DHT22;5331;48.148;16.326;2022-07-03T12:34:15;33.00;1.00
10566;DHT22;5331;48.148;16.326;2022-07-03T12:36:54;33.10;1.00
10566;DHT22;5331;48.148;16.326;2022-07-03T12:39:21;32.80;1.00
10566;DHT22;5331;48.148;16.326;2022-07-03T12:41:48;33.00;1.00
10566;DHT22;5331;48.148;16.326;2022-07-03T12:44:15;33.10;1.00
10566;DHT22;5331;48.148;16.326;2022-07-03T12:46:47;33.10;1.00
10566;DHT22;5331;48.148;16.326;2022-07-03T12:49:16;33.10;1.00
10566;DHT22;5331;48.148;16.326;2022-07-03T12:51:44;33.10;1.00
10566;DHT22;5331;48.148;16.326;2022-07-03T12:54:13;33.10;1.00
10566;DHT22;5331;48.148;16.326;2022-07-03T12:56:41;33.10;1.00
10566;DHT22;5331;48.148;16.326;2022-07-03T12:59:26;33.30;1.00
10566;DHT22;5331;48.148;16.326;2022-07-03T13:02:04;33.30;1.00
10566;DHT22;5331;48.148;16.326;2022-07-03T13:04:36;33.30;1.00
10566;DHT22;5331;48.148;16.326;2022-07-03T13:07:04;33.30;1.00
10566;DHT22;5331;48.148;16.326;2022-07-03T13:09:32;33.30;1.00
10566;DHT22;5331;48.148;16.326;2022-07-03T13:11:59;33.30;1.00
10566;DHT22;5331;48.148;16.326;2022-07-03T13:14:26;33.20;1.00
10566;DHT22;5331;48.148;16.326;2022-07-03T13:16:54;33.20;1.00
10566;DHT22;5331;48.148;16.326;2022-07-03T13:19:24;33.30;1.00
10566;DHT22;5331;48.148;16.326;2022-07-03T13:21:53;33.30;1.00
10566;DHT22;5331;48.148;16.326;2022-07-03T13:24:20;33.30;1.00
10566;DHT22;5331;48.148;16.326;2022-07-03T13:26:48;33.40;1.00
10566;DHT22;5331;48.148;16.326;2022-07-03T13:29:16;33.40;1.00
10566;DHT22;5331;48.148;16.326;2022-07-03T13:31:43;33.30;1.00
10566;DHT22;5331;48.148;16.326;2022-07-03T13:34:10;33.40;1.00
10566;DHT22;5331;48.148;16.326;2022-07-03T13:36:38;33.10;1.00
10566;DHT22;5331;48.148;16.326;2022-07-03T13:39:05;33.00;1.00
10566;DHT22;5331;48.148;16.326;2022-07-03T13:41:34;32.90;1.00
10566;DHT22;5331;48.148;16.326;2022-07-03T13:44:01;33.00;1.00
10566;DHT22;5331;48.148;16.326;2022-07-03T13:46:28;33.00;1.00
10566;DHT22;5331;48.148;16.326;2022-07-03T13:48:55;33.10;1.00
10566;DHT22;5331;48.148;16.326;2022-07-03T13:51:22;33.20;1.00
10566;DHT22;5331;48.148;16.326;2022-07-03T13:53:51;33.20;1.00
10566;DHT22;5331;48.148;16.326;2022-07-03T13:56:19;33.20;1.00
10566;DHT22;5331;48.148;16.326;2022-07-03T13:58:46;33.20;1.00
10566;DHT22;5331;48.148;16.326;2022-07-03T14:01:12;33.30;1.00
10566;DHT22;5331;48.148;16.326;2022-07-03T14:03:39;33.30;1.00
10566;DHT22;5331;48.148;16.326;2022-07-03T14:06:07;33.20;1.00
10566;DHT22;5331;48.148;16.326;2022-07-03T14:08:33;33.10;1.00
10566;DHT22;5331;48.148;16.326;2022-07-03T14:11:02;33.30;1.00
10566;DHT22;5331;48.148;16.326;2022-07-03T14:13:29;33.30;1.00
10566;DHT22;5331;48.148;16.326;2022-07-03T14:15:55;33.10;1.00
10566;DHT22;5331;48.148;16.326;2022-07-03T14:18:22;33.10;1.00
10566;DHT22;5331;48.148;16.326;2022-07-03T14:20:49;33.20;1.00
10566;DHT22;5331;48.148;16.326;2022-07-03T14:23:16;33.20;1.00
10566;DHT22;5331;48.148;16.326;2022-07-03T14:25:43;33.20;1.00
10566;DHT22;5331;48.148;16.326;2022-07-03T14:28:11;33.00;1.00
10566;DHT22;5331;48.148;16.326;2022-07-03T14:30:55;33.00;1.00
10566;DHT22;5331;48.148;16.326;2022-07-03T14:33:39;32.90;1.00
10566;DHT22;5331;48.148;16.326;2022-07-03T14:36:06;32.90;1.00
10566;DHT22;5331;48.148;16.326;2022-07-03T14:38:33;33.10;1.00
10566;DHT22;5331;48.148;16.326;2022-07-03T14:41:00;33.10;1.00
10566;DHT22;5331;48.148;16.326;2022-07-03T14:43:28;33.10;1.00
10566;DHT22;5331;48.148;16.326;2022-07-03T14:45:55;33.10;1.00
10566;DHT22;5331;48.148;16.326;2022-07-03T14:48:22;33.00;1.00
10566;DHT22;5331;48.148;16.326;2022-07-03T14:50:50;33.00;1.00
10566;DHT22;5331;48.148;16.326;2022-07-03T14:53:16;33.10;1.00
10566;DHT22;5331;48.148;16.326;2022-07-03T14:55:43;32.80;1.00
10566;DHT22;5331;48.148;16.326;2022-07-03T14:58:17;32.80;1.00
10566;DHT22;5331;48.148;16.326;2022-07-03T15:00:50;32.80;1.00
10566;DHT22;5331;48.148;16.326;2022-07-03T15:03:19;32.80;1.00
10566;DHT22;5331;48.148;16.326;2022-07-03T15:05:51;32.70;1.00
10566;DHT22;5331;48.148;16.326;2022-07-03T15:08:40;32.70;1.00
10566;DHT22;5331;48.148;16.326;2022-07-03T15:11:13;32.90;1.00
10566;DHT22;5331;48.148;16.326;2022-07-03T15:14:02;32.80;1.00
10566;DHT22;5331;48.148;16.326;2022-07-03T15:16:34;32.80;1.00
10566;DHT22;5331;48.148;16.326;2022-07-03T15:19:01;32.90;1.00
10566;DHT22;5331;48.148;16.326;2022-07-03T15:21:30;32.90;1.00
10566;DHT22;5331;48.148;16.326;2022-07-03T15:24:01;32.80;1.00
10566;DHT22;5331;48.148;16.326;2022-07-03T15:26:29;32.80;1.00
10566;DHT22;5331;48.148;16.326;2022-07-03T15:28:58;32.70;1.00
10566;DHT22;5331;48.148;16.326;2022-07-03T15:31:26;32.70;1.00
10566;DHT22;5331;48.148;16.326;2022-07-03T15:33:55;32.60;1.00
10566;DHT22;5331;48.148;16.326;2022-07-03T15:36:26;32.60;1.00
10566;DHT22;5331;48.148;16.326;2022-07-03T15:39:03;32.70;1.00
10566;DHT22;5331;48.148;16.326;2022-07-03T15:41:44;32.60;1.00
10566;DHT22;5331;48.148;16.326;2022-07-03T15:44:20;32.60;1.00
10566;DHT22;5331;48.148;16.326;2022-07-03T15:47:00;32.60;1.00
10566;DHT22;5331;48.148;16.326;2022-07-03T15:49:34;32.60;1.00
10566;DHT22;5331;48.148;16.326;2022-07-03T15:52:08;32.70;1.00
10566;DHT22;5331;48.148;16.326;2022-07-03T15:54:52;32.90;1.00
10566;DHT22;5331;48.148;16.326;2022-07-03T15:57:25;32.80;1.00
10566;DHT22;5331;48.148;16.326;2022-07-03T15:59:58;32.80;1.00
10566;DHT22;5331;48.148;16.326;2022-07-03T16:02:32;32.80;1.00
10566;DHT22;5331;48.148;16.326;2022-07-03T16:05:05;32.80;1.00
10566;DHT22;5331;48.148;16.326;2022-07-03T16:07:36;32.80;1.00